Tiempo atmosférico en la estación meteorológica de Lagunas De Somoza, León (1020 m.)



Fecha
DESCASC
Temp. máxima en grados centígrados (hora)
DESCASC
Temp. mínima en grados centígrados (hora)
DESCASC
Temp. media en grados centígrados
DESCASC
Racha de viento máxima en m/sg (hora)
DESCASC
Velocidad máxima media en intervalos de 10 minutos(hora)
DESCASC
Precipitaciones diarias en mm
DESCASC
Precipitaciones de 00:00 a 06:00 en mm
DESCASC
Precipitaciones de 06:00 a 12:00 en mm
DESCASC
Precipitaciones de 12:00 a 18:00 en mm
DESCASC
Precipitaciones de 18:00 a 24:00 en mm
DESCASC
21-02-2021 6.1 (12:10) 1.6 (23:50) 3.8 12.22 (19:20) 8.33 (19:20) 5.7 0 5 0.7 0
20-02-2021 7.2 (02:00) 4.3 (23:40) 5.8 14.44 (06:40) 8.33 (10:10) 9 0 0 5.2 3.8
19-02-2021 8.7 (13:30) 2.8 (01:30) 5.7 14.17 (13:20) 8.06 (13:10) 0 0 0 0 0
18-02-2021 11.3 (14:10) 3.6 (00:00) 7.5 15.28 (03:40) 8.33 (03:50) 2.3 0.1 0.6 1.6 0
17-02-2021 10.3 (14:20) -0.7 (-00:0) 4.8 12.5 (23:10) 6.94 (23:30) 0 0 0 0 0
16-02-2021 10.9 (12:40) 1.4 (00:00) 6.1 12.78 (03:10) 5.28 (03:40) 1.1 0 0 1.1 0
15-02-2021 14.5 (13:50) 3 (00:00) 8.8 10.83 (21:00) 6.39 (15:20) 0.1 0.1 0 0 0
14-02-2021 6.4 (12:20) -0.4 (00:00) 3 3.89 (14:20) 2.22 (14:10) 0 0 0 0 0
13-02-2021 14.4 (15:00) 0 (00:00) 7.2 10.83 (16:20) 7.22 (16:00) 0.1 0 0.1 0 0
12-02-2021 10.4 (16:10) 1.3 (00:00) 5.8 13.61 (12:50) 10 (12:30) 4.6 4.5 0.1 0 0
11-02-2021 13.5 (15:40) 1 (00:00) 7.3 6.39 (15:00) 4.44 (16:00) 0.2 0 0 0 0.2
10-02-2021 11 (15:30) -0.6 (-00:0) 5.2 14.72 (08:00) 10 (07:20) 2.1 2.1 0 0 0
09-02-2021 6 (14:30) 0.3 (00:00) 3.2 13.33 (20:30) 7.78 (20:30) 6.8 0.1 6.2 0.3 0.2
08-02-2021 7.7 (13:40) -0.5 (-00:0) 3.6 11.39 (14:30) 8.06 (15:50) 1.6 1.3 0.1 0.1 0.1
07-02-2021 5.2 (14:00) -4.8 (-00:0) 0.2 7.22 (02:00) 4.44 (01:50) 1.4 0 0 0.4 1
06-02-2021 5.1 (17:30) -1.1 (-00:0) 2 8.61 (06:40) 6.39 (20:20) 20.3 13.4 6.8 0.1 0
05-02-2021 6 (16:10) 2.1 (00:00) 4 5 (22:10) 2.5 (22:10) 9.4 0.4 1.1 1.5 6.4
04-02-2021 5.4 (01:50) 1.7 (00:00) 3.6 7.22 (01:40) 3.33 (03:50) 2 0 0 1.6 0.4
03-02-2021 10.6 (14:30) 4.1 (00:00) 7.4 12.78 (13:50) 7.5 (13:00) 1.1 1.1 0 0 0
02-02-2021 12.3 (11:40) 2.4 (00:00) 7.4 10 (23:50) 6.11 (15:20) 3 0 0 2.6 0.4
01-02-2021 13.4 (16:20) 5.2 (00:00) 9.3 21.11 (06:10) 14.72 (06:30) 0 0 0 0 0
31-01-2021 12.8 (15:40) 3.4 (00:00) 8.1 25 (00:10) 17.78 (02:10) 0.1 0 0.1 0 0
30-01-2021 8.9 (00:30) 1.4 (00:00) 5.1 23.33 (22:40) 16.67 (22:40) 3 1 0.2 1.8 0
29-01-2021 15.8 (13:40) 4.1 (00:00) 10 9.72 (20:20) 6.11 (20:30) 0 0 0 0 0
28-01-2021 15.2 (17:20) 1.5 (00:00) 8.3 8.06 (17:30) 5 (17:30) 0.1 0 0.1 0 0
27-01-2021 18.5 (15:40) 4.6 (00:00) 11.5 10.83 (03:30) 6.67 (04:10) 0 0 0 0 0
26-01-2021 15.4 (15:20) 4.1 (00:00) 9.7 7.78 (16:30) 5.83 (16:30) 0.6 0.2 0.4 0 0
25-01-2021 12.2 (14:30) 2.7 (00:00) 7.4 10.56 (10:50) 6.67 (10:10) 1.8 1.5 0 0.2 0.1

Gráficas

Temp. máximas Temp. mínimas Temp. medias Precipitaciones Rachas de viento máximas Velocidades máximas media en intervalos de 10 minutos

Datos horarios

Fecha y hora oficial Temperatura (ºC) Velocidad del viento (km/h) Dirección del viento Racha (km/h) Dirección de racha Precipitación (mm) Presión (hPa) Tendencia (hPa) Humedad (%)
2021-02-23 23:00:00 1.1 5 Sudeste 8 Sudeste 0 914.3 0.3 77
2021-02-23 22:00:00 2.6 4 Sudeste 10 Sudeste 0 914.3 0.8 72
2021-02-23 21:00:00 3 3 Sudeste 10 Sudeste 0 914.2 1.4 70
2021-02-23 20:00:00 5 3 Sudeste 15 Sudeste 0 914 1.4 62
2021-02-23 19:00:00 7.8 11 Sudeste 23 Sudeste 0 913.5 -- 52
2021-02-23 18:00:00 12 14 Sur 28 Sudeste 0 912.8 -- 43
2021-02-23 17:00:00 12 14 Sur 27 Sur 0 912.6 -- 46
2021-02-23 16:00:00 10.5 18 Sur 32 Sur 0 912.5 -- 48
2021-02-23 15:00:00 11 15 Sur 32 Sur 0 912.4 -- 50
2021-02-23 14:00:00 10.2 18 Sur 35 Sur 0 912.5 -- 51
2021-02-23 13:00:00 8.4 18 Sudeste 26 Sudeste 0 912.9 -- 59
2021-02-23 12:00:00 7.6 8 Sudeste 17 Sudeste 0 913.1 -- 59
2021-02-23 11:00:00 3.6 6 Nordeste 10 Este 0 912.9 -- 68
2021-02-23 10:00:00 -0.3 4 Nordeste 7 Nordeste 0 912.4 -- 77
2021-02-23 09:00:00 -0.9 2 Nordeste 8 Este 0 911.9 -- 86
2021-02-23 08:00:00 -3.8 2 Nordeste 7 Este 0 910.9 -- 92
2021-02-23 07:00:00 -3.9 0 Calma 5 Nordeste 0 910.5 -- 90
2021-02-23 06:00:00 -3 0 Calma 9 Nordeste 0 910.1 -- 86
2021-02-23 05:00:00 -2.1 4 Nordeste 10 Nordeste 0 909.7 -- 84
2021-02-23 04:00:00 -2.8 0 Calma 7 Nordeste 0 909.6 -- 84
2021-02-23 03:00:00 -1.7 4 Norte 7 Norte 0 909.4 -- 81
2021-02-23 02:00:00 -1.2 0 Calma 15 Nordeste 0 909.3 -- 77
2021-02-23 01:00:00 -0.7 9 Nordeste 14 Nordeste 0 909.1 -- 77
2021-02-23 00:00:00 -2.1 2 Nordeste 7 Nordeste 0 908.5 -- 77
2021-02-22 23:00:00 -0.7 2 Noroeste 11 Nordeste 0 908.2 -- 69
2021-02-22 22:00:00 -1.1 4 Noroeste 9 Noroeste 0 907.4 -- 74
2021-02-22 21:00:00 0.5 0 Calma 7 Noroeste 0 906.6 -- 64
2021-02-22 20:00:00 2.4 2 Sudoeste 7 Noroeste 0 906.4 -- 54
2021-02-22 19:00:00 6 5 Sur 21 Sur 0 905.3 -- 35
2021-02-22 18:00:00 10.5 14 Sur 19 Sur 0 904.4 -- 27
2021-02-22 17:00:00 11.9 7 Sudeste 21 Sudeste 0 903.8 -- 27
2021-02-22 16:00:00 11.8 5 Sudeste 19 Sudeste 0 903.1 -- 28
2021-02-22 15:00:00 11.6 4 Sudeste 22 Este 0 902.9 -- 31
2021-02-22 14:00:00 10.4 7 Sudeste 16 Sudeste 0 902.7 -- 31
2021-02-22 13:00:00 9.7 2 Sudeste 13 Sudeste 0 902.8 -- 30
2021-02-22 12:00:00 8.7 3 Sur 10 Este 0 902.3 -- 32
2021-02-22 11:00:00 5.2 6 Norte 18 Norte 0 901.7 -- 42
2021-02-22 10:00:00 2.2 13 Norte 19 Norte 0 901.2 -- 57
2021-02-22 09:00:00 0.4 4 Noroeste 23 Noroeste 0 900.5 -- 68
2021-02-22 08:00:00 -1.2 8 Noroeste 21 Noroeste 0 899.7 -- 75
2021-02-22 07:00:00 -1.1 13 Noroeste 20 Noroeste 0 899.1 1.6 77
2021-02-22 06:00:00 -0.9 7 Norte 18 Noroeste 0 898.3 -- 77
2021-02-22 05:00:00 -0.5 12 Noroeste 31 Noroeste 0 897.9 -- 77
2021-02-22 04:00:00 0.1 17 Noroeste 33 Noroeste 0 897.5 -- 74
2021-02-22 03:00:00 0 19 Noroeste 29 Oeste 0 896.9 -- 73
2021-02-22 02:00:00 0.8 13 Noroeste 21 Noroeste 0 896.5 -- 74
2021-02-22 01:00:00 1.5 14 Noroeste 31 Noroeste 0 895.9 -- 75
2021-02-22 00:00:00 1.6 19 Noroeste 28 Noroeste 0 895.5 -- 77
2021-02-21 23:00:00 1.8 15 Noroeste 37 Noroeste 0 895 -- 77
2021-02-21 22:00:00 2.1 21 Noroeste 33 Noroeste 0 894.1 2.6 77
2021-02-21 21:00:00 2.2 19 Noroeste 33 Noroeste 0 893.6 -- 78
2021-02-21 20:00:00 2.2 19 Noroeste 44 Noroeste 0 892.8 -- 75
2021-02-21 19:00:00 2.2 26 Noroeste 38 Noroeste 0 891.5 -- 77
2021-02-21 18:00:00 2.9 29 Noroeste 37 Oeste 0 890.7 -- 75
2021-02-21 17:00:00 3.6 23 Noroeste 34 Noroeste 0 890.3 -- 77
2021-02-21 16:00:00 4.1 18 Noroeste 27 Noroeste 0 890 -- 75
2021-02-21 15:00:00 3.5 14 Norte 22 Norte 0 889.7 -- 81
2021-02-21 14:00:00 3.8 10 Noroeste 23 Noroeste 0.4 889.6 -- 82
2021-02-21 13:00:00 3.7 10 Noroeste 19 Noroeste 0.3 890 -- 90
2021-02-21 12:00:00 6 12 Sur 24 Sur 0.2 889.4 -- 93
2021-02-21 11:00:00 5 12 Sudeste 23 Sudeste 0.4 888.8 -- 95
2021-02-21 10:00:00 4 12 Sudeste 20 Sudeste 1 888.7 -- 93
2021-02-21 09:00:00 3.9 10 Sur 30 Sur 2.1 888.4 -- 87
2021-02-21 08:00:00 3.8 9 Sur 39 Sur 1.3 888.2 -- 81
2021-02-21 07:00:00 4.5 10 Sudeste 43 Sur 0 888.4 -- 71
2021-02-21 06:00:00 4.2 7 Sur 26 Sur 0 889.2 -- 71
2021-02-21 05:00:00 3.7 6 Nordeste 10 Nordeste 0 888.6 -- 75
2021-02-21 04:00:00 3.4 4 Nordeste 8 Este 0 889.5 -- 78
2021-02-21 03:00:00 3.6 4 Este 12 Sudeste 0 890.5 -- 80
2021-02-21 02:00:00 4.3 6 Este 23 Este 0 890.9 -- 77
2021-02-21 01:00:00 4.9 12 Sudeste 35 Sur 0 891.6 -- 71
2021-02-21 00:00:00 4.9 13 Sur 29 Sur 0.1 892.2 -- 81
2021-02-20 23:00:00 4.4 4 Este 10 Sudeste 0 891.8 -- 89
2021-02-20 22:00:00 4.6 4 Sudeste 22 Sudeste 0 891.9 -- 89
2021-02-20 21:00:00 4.6 12 Sudeste 38 Sudoeste 0.9 892 -- 89
2021-02-20 20:00:00 5 25 Sur 46 Sur 1.7 892.6 -- 90
2021-02-20 19:00:00 5.2 29 Sur 45 Sur 1.1 892.1 -- 90
2021-02-20 18:00:00 5.6 19 Sur 42 Sur 1.2 892 -- 92
2021-02-20 17:00:00 5.8 22 Sur 39 Sur 1.3 892.1 -- 92
2021-02-20 16:00:00 5.8 22 Sur 38 Sur 1.3 891.9 -- 92
2021-02-20 15:00:00 6 19 Sur 43 Sudeste 0.9 891.9 -- 88
2021-02-20 14:00:00 6 20 Sur 33 Sur 0.5 892.5 -- 83
2021-02-20 13:00:00 5.7 19 Sur 37 Sur 0 893.6 -- 80
2021-02-20 12:00:00 6 19 Sur 43 Sudoeste 0 893.7 -- 75
2021-02-20 11:00:00 5.7 27 Sur 45 Sur 0 893.6 -- 75
2021-02-20 10:00:00 5.3 26 Sur 50 Sur 0 893.5 -- 80
2021-02-20 09:00:00 4.9 24 Sur 48 Sur 0 893.2 -0.2 84
2021-02-20 08:00:00 5 28 Sur 45 Sudoeste 0 893 -- 80
2021-02-20 07:00:00 5.4 27 Sur 52 Sur 0 893.3 -- 78
2021-02-20 06:00:00 5.9 27 Sur 41 Sur 0 893.4 -- 78
2021-02-20 05:00:00 6.2 23 Sur 44 Sur 0 893.6 -- 77
2021-02-20 04:00:00 6.9 16 Sur 46 Sur 0 894.5 -1.4 74
2021-02-20 03:00:00 6.9 22 Sur 45 Sur 0 895.1 -- 77
2021-02-20 02:00:00 7.2 17 Sur 32 Sudeste 0 895.4 -- 77
2021-02-20 01:00:00 6.7 13 Sudeste 23 Sudeste 0 895.9 -- 81
2021-02-20 00:00:00 6.5 12 Sudeste 32 Sudeste 0 896.4 -- 80
2021-02-19 23:00:00 6.4 14 Sudeste 31 Sudeste 0 896.9 -0.9 78
2021-02-19 22:00:00 6.4 10 Sudeste 19 Sudeste 0 897.4 -- 77
2021-02-19 21:00:00 6.7 9 Sudeste 22 Sudeste 0 897.8 -- 68
2021-02-19 20:00:00 7.1 8 Sudeste 34 Sur 0 897.8 -- 64
2021-02-19 19:00:00 7.5 24 Sur 33 Sur 0 897.2 -- 63
2021-02-19 18:00:00 7.9 19 Sur 32 Sur 0 897.4 -- 61
2021-02-19 17:00:00 8.1 22 Sur 37 Sur 0 897.9 -1 61
2021-02-19 16:00:00 8.2 21 Sur 40 Sudoeste 0 898.2 -- 62
2021-02-19 15:00:00 7.9 19 Sudoeste 39 Sudoeste 0 898.7 -- 64
2021-02-19 14:00:00 8.4 18 Sudoeste 51 Sudoeste 0 898.9 -- 65
2021-02-19 13:00:00 8.1 27 Sur 46 Sur 0 898.7 -- 69
2021-02-19 12:00:00 7.8 17 Sudoeste 48 Sudoeste 0 899.4 -- 68
2021-02-19 11:00:00 7.9 25 Sudoeste 46 Sudoeste 0 899.1 -- 65
2021-02-19 10:00:00 8.6 4 Sudoeste 35 Sur 0 899.6 -- 60
2021-02-19 09:00:00 6.2 2 Sudeste 13 Este 0 899.4 -- 77
2021-02-19 08:00:00 5.1 3 Este 15 Este 0 899.3 -- 83
2021-02-19 07:00:00 5.7 10 Este 14 Este 0 899.6 -- 77
2021-02-19 06:00:00 6.8 7 Sudoeste 26 Sudoeste 0 899.5 -- 60
2021-02-19 05:00:00 6.9 15 Sudoeste 30 Sudoeste 0 899.4 -- 60
2021-02-19 04:00:00 6.4 12 Sudoeste 27 Oeste 0 899.6 -- 62
2021-02-19 03:00:00 4.5 4 Sudeste 10 Sur 0 900.1 -- 74
2021-02-19 02:00:00 4.7 2 Oeste 16 Sudoeste 0 900.4 -- 75
2021-02-19 01:00:00 3.8 4 Noroeste 15 Nordeste 0 900.7 -- 90
2021-02-19 00:00:00 3.6 5 Norte 16 Nordeste 0 900.8 -- 90
2021-02-18 23:00:00 4.7 3 Este 15 Sur 0 900.8 -- 80
2021-02-18 22:00:00 5 6 Este 18 Este 0 900.7 -- 81
2021-02-18 21:00:00 4.7 5 Norte 13 Nordeste 0 900.8 -- 84
2021-02-18 20:00:00 6.1 4 Sudoeste 10 Oeste 0 900.6 -- 69
2021-02-18 19:00:00 7.2 8 Oeste 26 Oeste 0 899.9 -- 64
2021-02-18 18:00:00 8.3 12 Oeste 31 Oeste 0 899.6 -- 60
2021-02-18 17:00:00 9.3 10 Oeste 21 Oeste 0.1 899.3 -- 63
2021-02-18 16:00:00 10.3 5 Oeste 37 Oeste 0 899.1 -- 62
2021-02-18 15:00:00 9.6 9 Sudoeste 20 Sudoeste 0.3 898.7 -- 65
2021-02-18 14:00:00 8.3 5 Noroeste 16 Noroeste 0.7 899 -- 70
2021-02-18 13:00:00 5.8 13 Noroeste 36 Sudoeste 0.5 899.4 -- 80
2021-02-18 12:00:00 7.5 14 Sudoeste 24 Sudoeste 0 898.6 -- 72
2021-02-18 11:00:00 7.4 10 Sudoeste 19 Sudoeste 0.4 898.3 -- 74
2021-02-18 10:00:00 6.5 6 Sudeste 28 Sudoeste 0 898.1 -- 75
2021-02-18 09:00:00 6.2 12 Oeste 38 Sudoeste 0.1 897.4 -- 74
2021-02-18 08:00:00 5.8 18 Sudoeste 39 Sudoeste 0 896.9 -- 75
2021-02-18 07:00:00 6.4 18 Sudoeste 42 Sudoeste 0.1 896.2 -- 77
2021-02-18 06:00:00 6.5 21 Sudoeste 47 Sudoeste 0 896.6 -- 74
2021-02-18 05:00:00 7.9 26 Sudoeste 49 Sudoeste 0 896.6 -- 59
2021-02-18 04:00:00 7.8 26 Sudoeste 55 Sudoeste 0 896.9 -- 64
2021-02-18 03:00:00 7.9 23 Sudoeste 42 Sudoeste 0 897.7 -- 68
2021-02-18 02:00:00 7.5 22 Sudoeste 42 Sur 0.1 898.1 -- 75
2021-02-18 01:00:00 8 23 Sudoeste 41 Sur 0 898.5 -- 71
2021-02-18 00:00:00 8.1 19 Sudoeste 45 Sudoeste 0 898.9 -- 68
2021-02-17 23:00:00 8.6 17 Sudoeste 35 Sudoeste 0 899.2 -- 68
2021-02-17 22:00:00 8.6 18 Sudoeste 37 Sudoeste 0 899.5 -- 72
2021-02-17 21:00:00 8.1 17 Sur 30 Sur 0 899.6 -- 83
2021-02-17 20:00:00 7.2 12 Este 23 Sudeste 0 900.4 -- 84
2021-02-17 19:00:00 7.3 17 Sudeste 26 Sudeste 0 900.5 -- 83
2021-02-17 18:00:00 8.1 8 Sudeste 20 Sudeste 0 900.7 -- 84
2021-02-17 17:00:00 8.3 11 Sudeste 19 Sur 0 901.6 -- 77
2021-02-17 16:00:00 9.7 10 Sudoeste 22 Sudoeste 0 902.1 -- 56
2021-02-17 15:00:00 10 3 Sur 22 Oeste 0 902.5 -- 45
2021-02-17 14:00:00 9.6 14 Sudoeste 36 Sudoeste 0 903.2 -- 45
2021-02-17 13:00:00 8.5 15 Sudoeste 30 Sudoeste 0 903.9 -- 52
2021-02-17 12:00:00 4.6 5 Nordeste 15 Nordeste 0 904.4 -- 86
2021-02-17 11:00:00 4 4 Nordeste 10 Nordeste 0 904.9 -- 92
2021-02-17 10:00:00 1.7 0 Calma 13 Nordeste 0 905.2 -- 95
2021-02-17 09:00:00 0.7 7 Este 17 Nordeste 0 905.2 -- 96
2021-02-17 08:00:00 0.8 0 Calma 16 Nordeste 0 905.2 -- 96
2021-02-17 07:00:00 0.3 5 Este 13 Nordeste 0 905.4 -- 96
2021-02-17 06:00:00 -0.1 0 Calma 11 Nordeste 0 905.6 -- 93
2021-02-17 05:00:00 0.2 0 Calma 10 Sur 0 905.9 -- 89
2021-02-17 04:00:00 1.1 4 Norte 17 Oeste 0 906.3 -- 87
2021-02-17 03:00:00 0.6 3 Noroeste 13 Oeste 0 906.8 -- 89
2021-02-17 02:00:00 0.9 0 Calma 9 Sudeste 0 907 -- 80
2021-02-17 01:00:00 1.3 4 Sudeste 13 Oeste 0 907.5 -- 77
2021-02-17 00:00:00 2.6 7 Noroeste 23 Noroeste 0 907.7 -- 72
2021-02-16 23:00:00 1.5 2 Noroeste 11 Noroeste 0 908 -- 80
2021-02-16 22:00:00 4.6 4 Oeste 11 Oeste 0 907.7 -- 71
2021-02-16 21:00:00 2.4 2 Este 10 Oeste 0 907.6 -- 87
2021-02-16 20:00:00 3.5 4 Noroeste 13 Nordeste 0 907.4 -- 83
2021-02-16 19:00:00 5.9 0 Calma 10 Sur 0 907 -- 74
2021-02-16 18:00:00 8 5 Este 18 Oeste 0.2 906.8 -- 72
2021-02-16 17:00:00 8.9 10 Oeste 21 Oeste 0 906.5 -- 62
2021-02-16 16:00:00 8.4 0 Calma 11 Norte 0.7 906.8 -- 83
2021-02-16 15:00:00 7.9 4 Norte 21 Norte 0.2 906.7 -- 84
2021-02-16 14:00:00 10.2 12 Oeste 26 Sudoeste 0 906.6 -- 57
2021-02-16 13:00:00 10.4 14 Oeste 29 Oeste 0 906.7 -- 56
2021-02-16 12:00:00 8.6 15 Sudoeste 27 Oeste 0 906.8 -- 68
2021-02-16 11:00:00 7 9 Sur 26 Este 0 906.3 -- 74
2021-02-16 10:00:00 6.2 9 Sudeste 15 Sudeste 0 906 -- 77
2021-02-16 09:00:00 5.7 9 Sudeste 18 Sudeste 0 905.6 -- 74
2021-02-16 08:00:00 5.6 8 Este 21 Este 0 905.7 -- 75
2021-02-16 07:00:00 5.6 8 Sudeste 26 Sur 0 905.2 -- 68
2021-02-16 06:00:00 7.3 5 Sudoeste 23 Sudoeste 0 905.7 -- 63
2021-02-16 05:00:00 7.3 10 Este 29 Sudeste 0 906.4 -- 66
2021-02-16 04:00:00 7.7 18 Este 46 Este 0 906.3 -- 63
2021-02-16 03:00:00 8 17 Sudeste 30 Sudeste 0 907.2 -- 60
2021-02-16 02:00:00 8.5 17 Sudeste 30 Sudeste 0 907.5 -- 57
2021-02-16 01:00:00 7.7 13 Sudeste 25 Sur 0 907.9 -- 57
2021-02-16 00:00:00 8 14 Sur 29 Sudeste 0 908.6 -- 55
2021-02-15 23:00:00 8.1 17 Sudeste 30 Sudeste 0 908.8 -- 56
2021-02-15 22:00:00 8.5 11 Sur 29 Sur 0 909 -- 54
2021-02-15 21:00:00 9.9 12 Sudeste 39 Sudeste 0 909.4 -- 50
2021-02-15 20:00:00 8.9 15 Sudeste 26 Sudeste 0 909.6 -- 62
2021-02-15 19:00:00 9.2 14 Sudeste 26 Sudeste 0 909.6 -- 57
2021-02-15 18:00:00 11.4 17 Sudeste 24 Sudeste 0 909.5 -- 48
2021-02-15 17:00:00 12.1 17 Sur 30 Sur 0 909.8 -- 45
2021-02-15 16:00:00 12.8 22 Sur 36 Sur 0 910 -- 43
2021-02-15 15:00:00 12.3 21 Sur 35 Sur 0 910.3 -- 42
2021-02-15 14:00:00 14.4 16 Sur 26 Sur 0 910.9 -- 40
2021-02-15 13:00:00 9.5 8 Nordeste 15 Nordeste 0 912.1 -- 68
2021-02-15 12:00:00 7 8 Nordeste 13 Nordeste 0 912.8 -- 86
2021-02-15 11:00:00 4.8 5 Nordeste 10 Nordeste 0 913 -- 96
2021-02-15 10:00:00 3.6 5 Nordeste 11 Nordeste 0 912.7 -- 96
2021-02-15 09:00:00 3.1 4 Nordeste 9 Norte 0 912.2 -- 96
2021-02-15 08:00:00 3.5 5 Este 7 Nordeste 0 911.4 -- 96
2021-02-15 07:00:00 3.5 5 Norte 14 Nordeste 0 911.2 -- 96
2021-02-15 06:00:00 3.7 8 Nordeste 18 Nordeste 0 911.3 -- 96
2021-02-15 05:00:00 4.1 8 Nordeste 18 Nordeste 0.1 911.1 -- 96
2021-02-15 04:00:00 4.3 6 Norte 15 Nordeste 0 911.3 -- 96
2021-02-15 03:00:00 4.5 4 Norte 14 Nordeste 0 911.4 -- 96
2021-02-15 02:00:00 4.6 7 Norte 13 Nordeste 0 911.2 -- 96
2021-02-15 01:00:00 4.4 5 Norte 12 Norte 0 911.2 -- 96
2021-02-15 00:00:00 4.5 4 Nordeste 8 Norte 0 911.4 -- 96
2021-02-14 23:00:00 3.4 0 Calma 6 Nordeste 0 911.4 -- 96
2021-02-14 22:00:00 2.9 0 Calma 6 Oeste 0 911.2 -- 96
2021-02-14 21:00:00 3.8 0 Calma 6 Nordeste 0 911.2 -- 95
2021-02-14 20:00:00 4.3 2 Norte 7 Noroeste 0 911.1 -- 94
2021-02-14 19:00:00 5.7 0 Calma 4 Nordeste 0 910.7 0.4 94
2021-02-14 18:00:00 5.6 3 Nordeste 9 Nordeste 0 910.6 0.2 94
2021-02-14 17:00:00 5.4 6 Nordeste 10 Nordeste 0 910.5 -- 94
2021-02-14 16:00:00 5.2 6 Nordeste 12 Nordeste 0 910.3 -- 94
2021-02-14 15:00:00 5.3 6 Este 14 Nordeste 0 910.4 -- 93
2021-02-14 14:00:00 5.2 7 Nordeste 12 Nordeste 0 910.6 -- 92
2021-02-14 13:00:00 5 6 Nordeste 11 Nordeste 0 911 -- 92
2021-02-14 12:00:00 5.5 0 Calma 9 Sudeste 0 911 -- 96
2021-02-14 11:00:00 4.7 3 Este 9 Este 0 910.8 -- 96
2021-02-14 10:00:00 3.5 4 Nordeste 10 Nordeste 0 910.5 -- 96
2021-02-14 09:00:00 2 3 Noroeste 6 Noroeste 0 910.4 -- 96
2021-02-14 08:00:00 2.2 2 Noroeste 7 Norte 0 910 -- 96
2021-02-14 07:00:00 1.4 0 Calma 6 Noroeste 0 909.8 -- 96
2021-02-14 06:00:00 1.1 0 Calma 4 Noroeste 0 909.8 -- 96
2021-02-14 05:00:00 -0.3 0 Calma 4 Norte 0 910.1 -- 96
2021-02-14 04:00:00 0.4 0 Calma 6 Norte 0 910.3 -- 96
2021-02-14 03:00:00 0.4 3 Norte 5 Norte 0 910.3 -- 96
2021-02-14 02:00:00 0.2 3 Noroeste 6 Nordeste 0 910.3 -- 95
2021-02-14 01:00:00 0.9 3 Noroeste 7 Noroeste 0 910.5 -- 93
2021-02-14 00:00:00 1.2 3 Noroeste 7 Noroeste 0 910.6 -- 92
2021-02-13 23:00:00 1.6 3 Noroeste 5 Noroeste 0 910.5 -- 89
2021-02-13 22:00:00 3.9 3 Noroeste 9 Noroeste 0 910.7 -- 85
2021-02-13 21:00:00 3.7 7 Noroeste 8 Noroeste 0 911 -- 85
2021-02-13 20:00:00 4.5 0 Calma 10 Noroeste 0 910.7 -- 77
2021-02-13 19:00:00 7.2 9 Noroeste 30 Noroeste 0 910.2 -- 63
2021-02-13 18:00:00 9.9 23 Noroeste 33 Noroeste 0 909.8 -- 54
2021-02-13 17:00:00 11.2 16 Noroeste 39 Noroeste 0 909.6 -- 54
2021-02-13 16:00:00 11.1 26 Noroeste 34 Noroeste 0 909.1 -- 56
2021-02-13 15:00:00 13.2 5 Oeste 11 Noroeste 0 908.8 -- 51
2021-02-13 14:00:00 10.6 2 Sudeste 12 Sudeste 0 909.2 -- 56
2021-02-13 13:00:00 8.6 5 Sudeste 12 Este 0 909.6 -- 62
2021-02-13 08:00:00 1.8 0 Calma 10 Oeste 0 907.4 0.1 90
2021-02-13 07:00:00 1.5 3 Oeste 7 Oeste 0 907.7 0.3 91
2021-02-13 06:00:00 0.9 0 Calma 5 Oeste 0 907.6 0 91
2021-02-13 05:00:00 0.2 3 Noroeste 7 Noroeste 0 907.3 -0.1 89
2021-02-13 04:00:00 0.5 0 Calma 8 Noroeste 0 907.4 -0.5 88
2021-02-13 03:00:00 0.7 0 Calma 5 Noroeste 0 907.6 -0.6 87
2021-02-13 02:00:00 0.8 0 Calma 4 Noroeste 0 907.4 -0.6 88
2021-02-13 01:00:00 1.2 0 Calma 5 Nordeste 0 907.9 -0.1 83
2021-02-13 00:00:00 1.5 4 Noroeste 7 Sudeste 0 908.2 0.3 80
2021-02-12 23:00:00 2.7 4 Noroeste 10 Nordeste 0 908 0.2 74
2021-02-12 22:00:00 3.1 6 Noroeste 10 Oeste 0 908 0.8 74
2021-02-12 21:00:00 2.4 3 Norte 9 Noroeste 0 907.9 1.3 75
2021-02-12 20:00:00 4.4 6 Oeste 16 Noroeste 0 907.8 1.4 65
2021-02-12 19:00:00 6.3 7 Norte 15 Noroeste 0 907.2 1.1 57
2021-02-12 18:00:00 9.2 11 Noroeste 30 Noroeste 0 906.6 0.7 50
2021-02-12 17:00:00 8.2 14 Noroeste 26 Noroeste 0 906.4 0.9 55
2021-02-12 16:00:00 10.2 16 Noroeste 30 Noroeste 0 906.1 1 51
2021-02-12 15:00:00 9.6 19 Noroeste 35 Noroeste 0 905.9 1.9 57
2021-02-12 14:00:00 9.3 21 Noroeste 42 Noroeste 0 905.5 1.8 60
2021-02-12 13:00:00 8.3 27 Noroeste 49 Noroeste 0 905.1 2 61
2021-02-12 12:00:00 7.2 29 Noroeste 45 Noroeste 0.1 904 1.5 66
2021-02-12 11:00:00 6.3 15 Noroeste 38 Noroeste 0 903.7 2.1 74
2021-02-12 10:00:00 5.8 4 Oeste 22 Noroeste 0 903.1 2.3 74
2021-02-12 09:00:00 6.2 10 Oeste 26 Oeste 0 902.5 -- 77
2021-02-12 08:00:00 5.3 14 Noroeste 35 Noroeste 0 901.6 -- 77
2021-02-12 07:00:00 5 18 Noroeste 35 Noroeste 0 900.8 -- 78
2021-02-12 06:00:00 5.5 17 Oeste 27 Noroeste 0 900.1 -- 78
2021-02-12 05:00:00 5.4 8 Oeste 22 Noroeste 0.2 899.8 -- 83
2021-02-12 04:00:00 6.6 12 Noroeste 32 Oeste 0.2 899.6 -- 79
2021-02-12 03:00:00 6.3 2 Oeste 13 Oeste 0.2 898.7 -- 89
2021-02-12 02:00:00 6.2 6 Noroeste 10 Oeste 0.1 899.3 -- 89
2021-02-12 01:00:00 6.6 11 Noroeste 22 Oeste 3.8 898.6 -- 83
2021-02-12 00:00:00 8.4 4 Sudeste 14 Sudeste 0 898.5 -- 84
2021-02-11 23:00:00 8.8 8 Sur 23 Sudeste 0 899 -- 85
2021-02-11 22:00:00 8.8 7 Sur 15 Sur 0 899.2 -- 85
2021-02-11 21:00:00 8.8 7 Sur 19 Sur 0 899.7 -- 89
2021-02-11 20:00:00 8.6 11 Sudeste 18 Sudeste 0.1 900.3 -- 93
2021-02-11 19:00:00 8.7 8 Sudeste 14 Sudeste 0.1 900.2 -- 92
2021-02-11 18:00:00 9.1 9 Sur 17 Sudoeste 0 900.1 -- 88
2021-02-11 17:00:00 10.3 11 Sur 22 Sudoeste 0 900.3 -- 80
2021-02-11 16:00:00 11 16 Sur 23 Sudoeste 0 899.9 -- 71
2021-02-11 15:00:00 11.2 15 Sur 23 Sudoeste 0 900.9 -- 66
2021-02-11 14:00:00 12.7 8 Sudeste 15 Este 0 901.2 -- 59
2021-02-11 13:00:00 10.1 5 Este 10 Este 0 901.9 -- 65
2021-02-11 12:00:00 6.8 3 Sudeste 9 Sur 0 902.2 -- 71
2021-02-11 11:00:00 5.3 3 Este 9 Nordeste 0 902.2 -- 81
2021-02-11 10:00:00 3.7 0 Calma 8 Norte 0 902.2 -- 91
2021-02-11 09:00:00 2.1 4 Norte 8 Norte 0 901.7 -- 93
2021-02-11 08:00:00 1.1 5 Noroeste 8 Nordeste 0 901.4 -- 93
2021-02-11 07:00:00 1.5 2 Nordeste 6 Nordeste 0 901.1 -- 90
2021-02-11 06:00:00 2.8 0 Calma 3 Sudeste 0 901 -- 87
2021-02-11 05:00:00 3 0 Calma 6 Nordeste 0 901 -- 86
2021-02-11 04:00:00 2.9 0 Calma 5 Nordeste 0 901.1 -- 86
2021-02-11 03:00:00 2.3 0 Calma 4 Noroeste 0 901 -- 87
2021-02-11 02:00:00 2.3 0 Calma 4 Este 0 900.8 -- 86
2021-02-11 01:00:00 3.1 2 Norte 6 Norte 0 900.8 -- 86
2021-02-11 00:00:00 3.3 2 Sudeste 7 Noroeste 0 900.5 -- 84
2021-02-10 23:00:00 3.7 6 Noroeste 8 Noroeste 0 900.4 -- 83
2021-02-10 22:00:00 3.6 3 Norte 6 Noroeste 0 899.8 -- 81
2021-02-10 21:00:00 3.3 0 Calma 4 Noroeste 0 899.6 -- 81
2021-02-10 20:00:00 2.9 0 Calma 4 Oeste 0 899.5 -- 79
2021-02-10 19:00:00 4.9 0 Calma 7 Nordeste 0 898.6 -- 61
2021-02-10 18:00:00 6.4 5 Nordeste 12 Este 0 898 -- 53
2021-02-10 17:00:00 8.1 8 Sudeste 18 Oeste 0 897.5 -- 47
2021-02-10 16:00:00 8.7 12 Noroeste 22 Noroeste 0 896.9 -- 38
2021-02-10 15:00:00 8.9 13 Noroeste 26 Noroeste 0 896.4 -- 44
2021-02-10 14:00:00 7.7 19 Noroeste 31 Noroeste 0 896 -- 48
2021-02-10 13:00:00 6 13 Noroeste 43 Noroeste 0 895.7 -- 56
2021-02-10 12:00:00 4.9 14 Oeste 40 Noroeste 0 894.9 -- 57
2021-02-10 11:00:00 4 27 Noroeste 49 Oeste 0 892.8 -- 57
2021-02-10 10:00:00 2.9 8 Sur 30 Sudeste 0 892.2 -- 57
2021-02-10 09:00:00 1.2 16 Oeste 52 Oeste 0 890.8 -- 66
2021-02-10 08:00:00 0.7 36 Oeste 53 Oeste 0 889.2 -- 68
2021-02-10 07:00:00 0.9 31 Noroeste 46 Noroeste 0 888.2 -- 77
2021-02-10 06:00:00 1.3 32 Noroeste 52 Noroeste 0 886.9 -- 76
2021-02-10 05:00:00 1.6 34 Oeste 49 Noroeste 0.1 885.9 -- 74
2021-02-10 04:00:00 1.2 24 Oeste 37 Noroeste 0.5 885.6 -- 82
2021-02-10 03:00:00 1.1 22 Noroeste 41 Noroeste 0.6 885 -- 81
2021-02-10 02:00:00 -0.6 12 Noroeste 25 Norte 0.9 885.3 -- 96
2021-02-10 01:00:00 1.2 3 Sudeste 8 Sur 0 884 -- 87
2021-02-10 00:00:00 1.4 6 Sudoeste 17 Oeste 0 884.3 -- 84
2021-02-09 23:00:00 1.8 9 Sudoeste 16 Sudoeste 0 884.6 -- 80
2021-02-09 22:00:00 1.1 9 Sudoeste 28 Oeste 0 884.3 -- 75
2021-02-09 21:00:00 2.7 23 Oeste 48 Oeste 0 884 -- 62
2021-02-09 20:00:00 1.6 12 Oeste 25 Oeste 0 883.9 -- 74
2021-02-09 19:00:00 1.7 5 Sur 17 Sur 0.2 883.8 -- 86
2021-02-09 18:00:00 2.5 9 Sur 23 Sur 0 883.5 -- 77
2021-02-09 17:00:00 3.9 6 Sur 22 Sudoeste 0 883.6 -- 68
2021-02-09 16:00:00 3.9 10 Sudoeste 25 Oeste 0 883.5 -- 69
2021-02-09 15:00:00 5 13 Oeste 21 Oeste 0 883.6 -- 63
2021-02-09 14:00:00 4.9 12 Oeste 20 Oeste 0 883.5 -- 66
2021-02-09 13:00:00 2.7 10 Sur 44 Noroeste 0.3 883.7 -- 90
2021-02-09 12:00:00 0.5 8 Sudoeste 23 Noroeste 1.8 884.3 -- 91
2021-02-09 11:00:00 1.5 15 Oeste 27 Noroeste 2.5 883.4 -- 90
2021-02-09 10:00:00 3.4 9 Oeste 22 Oeste 1.8 882.6 -- 87
2021-02-09 09:00:00 3.8 9 Sudoeste 28 Sudoeste 0.1 882 -- 84
2021-02-09 08:00:00 3.7 12 Sudoeste 23 Sur 0 882.5 -- 83
2021-02-09 07:00:00 3.4 9 Sur 24 Sudeste 0 883.4 -- 84
2021-02-09 06:00:00 2.9 16 Sudeste 24 Sudeste 0 884.2 -- 87
2021-02-09 05:00:00 2.7 17 Sudeste 31 Sudeste 0 885.6 -- 84
2021-02-09 04:00:00 2.4 16 Sur 30 Sudeste 0 886.8 -- 83
2021-02-09 03:00:00 3.8 13 Sudoeste 22 Sudoeste 0.1 887.7 -- 77
2021-02-09 02:00:00 2.7 0 Calma 9 Sudeste 0 888.4 -- 89
2021-02-09 01:00:00 2.8 8 Sur 14 Sur 0 889 -- 86
2021-02-09 00:00:00 2.3 4 Sudeste 8 Sudeste 0 889.2 -- 86
2021-02-08 23:00:00 2.9 4 Este 11 Oeste 0 889.4 -- 84
2021-02-08 22:00:00 3.2 5 Sudeste 10 Noroeste 0.1 888.9 -- 84
2021-02-08 21:00:00 4.2 4 Norte 10 Noroeste 0 888.6 -- 75
2021-02-08 20:00:00 4.5 3 Sudoeste 22 Noroeste 0 888.9 -- 71
2021-02-08 19:00:00 4.3 15 Noroeste 23 Noroeste 0 888.1 -- 69
2021-02-08 18:00:00 5 16 Noroeste 31 Oeste 0 887.6 -- 60
2021-02-08 17:00:00 6.8 18 Oeste 39 Noroeste 0 887 -- 54
2021-02-08 16:00:00 6.8 21 Noroeste 40 Noroeste 0 886 -- 58
2021-02-08 15:00:00 5 23 Noroeste 41 Noroeste 0 885.6 -- 65
2021-02-08 14:00:00 6.1 6 Sudoeste 19 Noroeste 0 885.6 -- 60
2021-02-08 13:00:00 6.8 11 Oeste 21 Noroeste 0.1 885.7 -- 65
2021-02-08 12:00:00 5.7 5 Oeste 24 Sudoeste 0 885.7 -- 65
2021-02-08 11:00:00 6.6 4 Este 9 Sudeste 0 885.6 -- 80
2021-02-08 10:00:00 2.5 3 Sudeste 6 Sur 0 885.3 -- 91
2021-02-08 09:00:00 0.7 0 Calma 5 Sur 0.1 884.9 -- 93
2021-02-08 08:00:00 0.6 0 Calma 5 Sur 0 884.4 -- 92
2021-02-08 07:00:00 1.7 3 Oeste 18 Noroeste 0 884.5 -- 87
2021-02-08 06:00:00 1.2 8 Noroeste 18 Oeste 0.1 884.3 -- 96
2021-02-08 05:00:00 0.1 0 Calma 9 Nordeste 0 884.2 -- 96
2021-02-08 04:00:00 0 2 Norte 15 Nordeste 0 884.5 -- 96
2021-02-08 03:00:00 0.7 12 Nordeste 19 Nordeste 0.1 884.8 -- 96
2021-02-08 02:00:00 1 7 Nordeste 17 Nordeste 0.1 885.4 -- 96
2021-02-08 01:00:00 0.9 9 Nordeste 15 Norte 1 885.6 -- 96
2021-02-08 00:00:00 1.4 3 Este 11 Nordeste 0.5 886.6 -- 96
2021-02-07 23:00:00 1.2 0 Calma 14 Norte 0.2 887.4 -- 96
2021-02-07 22:00:00 1.1 6 Nordeste 12 Nordeste 0 888.1 -- 96
2021-02-07 21:00:00 1.4 7 Este 14 Este 0.3 888.6 -- 95
2021-02-07 20:00:00 1.5 6 Nordeste 10 Nordeste 0 889.1 -- 93
2021-02-07 19:00:00 1.6 4 Nordeste 12 Este 0 889.4 -- 90
2021-02-07 18:00:00 2.3 6 Este 10 Nordeste 0 889.4 -- 86
2021-02-07 17:00:00 2.4 6 Nordeste 11 Nordeste 0.1 889.9 -- 83
2021-02-07 16:00:00 3.3 5 Este 9 Este 0.2 890 -- 74
2021-02-07 15:00:00 5.1 3 Este 9 Este 0.1 890.4 -- 60
2021-02-07 14:00:00 4.5 4 Este 12 Nordeste 0 890.9 -- 56
2021-02-07 13:00:00 4.3 5 Nordeste 10 Este 0 891.6 -- 55
2021-02-07 12:00:00 3.5 3 Este 8 Este 0 892 -- 63
2021-02-07 11:00:00 0.5 0 Calma 3 Noroeste 0 892 -- 67
2021-02-07 10:00:00 -0.1 0 Calma 5 Norte 0 892.1 -- 77
2021-02-07 09:00:00 -3.6 3 Norte 5 Noroeste 0 892.1 -- 89
2021-02-07 08:00:00 -4.2 0 Calma 5 Noroeste 0 891.9 -- 88
2021-02-07 07:00:00 -4.1 0 Calma 8 Noroeste 0 892 -- 87
2021-02-07 06:00:00 -4.8 3 Noroeste 6 Noroeste 0 892.4 -- 87
2021-02-07 05:00:00 -3.1 0 Calma 11 Norte 0 892.4 -- 78
2021-02-07 04:00:00 -2.1 3 Oeste 23 Norte 0 892.6 -- 75
2021-02-07 03:00:00 -1.4 13 Norte 21 Norte 0 892.9 -- 73
2021-02-07 02:00:00 -1 15 Noroeste 26 Norte 0 893 -- 71
2021-02-07 01:00:00 -1 9 Noroeste 19 Noroeste 0 893.3 -- 75
2021-02-07 00:00:00 -0.2 12 Noroeste 21 Noroeste 0 893.2 -- 71
2021-02-06 23:00:00 -1 6 Noroeste 15 Noroeste 0 893.2 -- 80
2021-02-06 22:00:00 -0.5 8 Oeste 19 Noroeste 0 893 -- 78
2021-02-06 21:00:00 0.7 17 Noroeste 29 Noroeste 0 892.3 -- 76
2021-02-06 20:00:00 2.3 21 Noroeste 31 Noroeste 0 891.8 -- 75
2021-02-06 19:00:00 2.4 15 Noroeste 25 Noroeste 0 891 -- 77
2021-02-06 18:00:00 4.5 13 Noroeste 22 Noroeste 0 890.4 -- 69
2021-02-06 17:00:00 4.2 14 Noroeste 26 Noroeste 0 890.3 -- 75
2021-02-06 16:00:00 4.4 18 Noroeste 26 Noroeste 0 889.9 -- 72
2021-02-06 15:00:00 4.3 18 Noroeste 27 Noroeste 0 889.5 -- 74
2021-02-06 14:00:00 4.4 14 Noroeste 24 Noroeste 0 889.4 -- 78
2021-02-06 13:00:00 4.1 10 Noroeste 18 Noroeste 0.1 889.7 -- 84
2021-02-06 12:00:00 3.2 8 Noroeste 16 Noroeste 0.6 889.6 -- 87
2021-02-06 11:00:00 2 12 Noroeste 17 Noroeste 0.2 889 -- 93
2021-02-06 10:00:00 1.4 10 Noroeste 14 Noroeste 0.6 888.7 -- 93
2021-02-06 09:00:00 1.3 9 Noroeste 17 Oeste 0.9 888.5 -- 93
2021-02-06 08:00:00 1 10 Noroeste 29 Nordeste 2.1 888 -- 93
2021-02-06 07:00:00 1.7 17 Norte 31 Norte 2.4 887.4 -- 93
2021-02-06 06:00:00 2.5 9 Norte 25 Nordeste 2.3 887 -- 93
2021-02-06 05:00:00 2.3 8 Norte 22 Norte 1.8 886.8 -- 93
2021-02-06 04:00:00 2.4 11 Norte 26 Norte 3.2 887 -- 94
2021-02-06 03:00:00 3 11 Norte 22 Norte 0.6 887.3 -- 94
2021-02-06 02:00:00 3.2 9 Norte 19 Norte 1.7 887.8 -- 95
2021-02-06 01:00:00 4 7 Norte 14 Nordeste 3.8 888.1 -- 94
2021-02-06 00:00:00 4.5 4 Nordeste 18 Nordeste 3.7 888.2 -- 92
2021-02-05 23:00:00 4.5 8 Norte 18 Nordeste 1.5 888.4 -- 92
2021-02-05 22:00:00 4.8 9 Norte 16 Nordeste 0.4 888.2 -- 94
2021-02-05 21:00:00 5.1 6 Norte 13 Norte 0.2 888.2 -- 95
2021-02-05 20:00:00 5.1 5 Norte 8 Norte 0.6 888.4 -- 95
2021-02-05 19:00:00 5.4 0 Calma 7 Norte 0 888.5 -- 95
2021-02-05 18:00:00 5.6 3 Nordeste 9 Nordeste 0 888.6 -- 95
2021-02-05 17:00:00 5.7 4 Nordeste 10 Nordeste 0.2 888.9 -- 94
2021-02-05 16:00:00 5.7 4 Norte 10 Nordeste 0.3 889.3 -- 93
2021-02-05 15:00:00 4.9 4 Nordeste 11 Nordeste 0.5 889.9 -- 93
2021-02-05 14:00:00 4.4 3 Nordeste 11 Nordeste 0.2 891 -- 93
2021-02-05 13:00:00 4.1 7 Norte 12 Nordeste 0.3 891.4 -- 93
2021-02-05 12:00:00 4 3 Norte 9 Noroeste 0.2 892.4 -- 93
2021-02-05 11:00:00 3.6 2 Norte 6 Noroeste 0.4 892.7 -- 95
2021-02-05 10:00:00 3.4 2 Noroeste 8 Noroeste 0.2 893 -- 96
2021-02-05 09:00:00 2.8 7 Noroeste 11 Noroeste 0 892.9 -- 96
2021-02-05 08:00:00 2.7 5 Oeste 9 Noroeste 0.3 892.9 -- 97
2021-02-05 07:00:00 2.4 6 Noroeste 12 Noroeste 0 893 -- 97
2021-02-05 06:00:00 2.5 5 Norte 8 Norte 0.1 893.4 -- 97
2021-02-05 05:00:00 2.4 0 Calma 10 Noroeste 0.2 893.8 -- 97
2021-02-05 04:00:00 2.4 3 Noroeste 10 Nordeste 0.1 894.4 -- 96
2021-02-05 03:00:00 2.4 5 Nordeste 10 Nordeste 0 893.8 -- 96
2021-02-05 02:00:00 2.5 0 Calma 8 Nordeste 0 894.5 -- 96
2021-02-05 01:00:00 2.6 3 Nordeste 6 Nordeste 0 894.8 -- 96
2021-02-05 00:00:00 2.6 2 Nordeste 6 Sudeste 0 895 -- 95
2021-02-04 23:00:00 2.6 4 Sudeste 6 Sudeste 0 895 -- 95
2021-02-04 22:00:00 2.6 0 Calma -- -- 0 894.9 -- 94
2021-02-04 21:00:00 2.5 0 Calma 4 Sudeste 0.2 894.4 -- 93
2021-02-04 20:00:00 2.8 0 Calma 4 Sudeste 0.2 894.6 -- 92
2021-02-04 19:00:00 3 0 Calma 6 Sudeste 0 894.3 -- 91
2021-02-04 18:00:00 3.2 0 Calma 5 Sur 0.1 894 -- 88
2021-02-04 17:00:00 3.3 3 Sur 5 Sur 0.1 894 -- 86
2021-02-04 16:00:00 3.7 4 Sur 7 Sudeste 0.2 893.7 -- 82
2021-02-04 15:00:00 3.6 3 Sur 8 Sudoeste 0.5 893.9 -- 82
2021-02-04 14:00:00 3.8 2 Sudoeste 8 Sur 0.6 894.7 -- 84
2021-02-04 13:00:00 4.4 3 Sudeste 9 Sudeste 0.1 895.2 -- 88
2021-02-04 12:00:00 4.4 4 Sudeste 10 Nordeste 0 895.5 -- 92
2021-02-04 11:00:00 2.9 8 Nordeste 13 Nordeste 0 895.5 -- 92
2021-02-04 10:00:00 2.9 0 Calma 14 Norte 0 895 -- 93
2021-02-04 09:00:00 2 5 Nordeste 9 Nordeste 0 894.9 -- 93
2021-02-04 08:00:00 2 0 Calma 6 Nordeste 0 894.9 -- 92
2021-02-04 07:00:00 1.9 5 Nordeste 14 Nordeste 0 894.7 -- 90
2021-02-04 06:00:00 2.4 9 Nordeste 15 Nordeste 0 894.5 -- 83
2021-02-04 05:00:00 4.2 4 Sur 14 Sudeste 0 894.5 -- 75
2021-02-04 04:00:00 3.7 12 Sudeste 17 Sudeste 0 894.7 -- 78
2021-02-04 03:00:00 4.7 6 Este 21 Nordeste 0 895 -- 66
2021-02-04 02:00:00 5.1 2 Noroeste 26 Norte 0 895 -- 63
2021-02-04 01:00:00 4.1 6 Noroeste 20 Oeste 0 895 -- 68
2021-02-04 00:00:00 4.5 10 Oeste 25 Oeste 0 895.1 -- 69
2021-02-03 23:00:00 4.7 5 Noroeste 17 Sudoeste 0 895.4 -- 74
2021-02-03 22:00:00 5.1 8 Sudoeste 26 Oeste 0 895.2 -- 68
2021-02-03 21:00:00 5.9 16 Sudoeste 39 Sudoeste 0 895 -- 59
2021-02-03 20:00:00 6.6 18 Sudoeste 36 Sudoeste 0 894.9 -- 58
2021-02-03 19:00:00 5.8 10 Sudoeste 28 Sudoeste 0 895.1 -- 60
2021-02-03 18:00:00 6.6 20 Sudoeste 34 Sudoeste 0 894.7 -- 58
2021-02-03 17:00:00 8.4 13 Oeste 23 Sudoeste 0 895 -- 55
2021-02-03 16:00:00 9 18 Sudoeste 31 Oeste 0 895.3 -- 53
2021-02-03 15:00:00 9.8 19 Sudoeste 36 Oeste 0 895.4 -- 49
2021-02-03 14:00:00 10 21 Sudoeste 46 Oeste 0 895.5 -- 45
2021-02-03 13:00:00 9.1 27 Oeste 45 Oeste 0 895.7 -- 49
2021-02-03 12:00:00 8.8 20 Sudoeste 36 Sudoeste 0 896.1 -- 53
2021-02-03 11:00:00 7.7 21 Oeste 45 Oeste 0 896 -- 55
2021-02-03 10:00:00 6.5 17 Sudoeste 37 Oeste 0 895.6 -- 58
2021-02-03 09:00:00 5.1 15 Oeste 41 Oeste 0 894.9 -- 52
2021-02-03 08:00:00 5.6 20 Sudoeste 38 Sudoeste 0 894.1 -- 55
2021-02-03 07:00:00 5.2 17 Oeste 33 Oeste 0 893.6 -- 74
2021-02-03 06:00:00 6.3 10 Sudoeste 35 Sudoeste 0.1 893.2 -- 80
2021-02-03 05:00:00 6.5 10 Oeste 28 Sudoeste 0.2 892.8 -- 82
2021-02-03 04:00:00 7.4 13 Sudoeste 32 Sudoeste 0.2 892.8 -- 81
2021-02-03 03:00:00 7.7 18 Sudoeste 34 Sudoeste 0.2 892.9 -- 81
2021-02-03 02:00:00 7.2 15 Sudoeste 35 Sudoeste 0.2 893.1 -- 86
2021-02-03 01:00:00 7.6 19 Sudoeste 41 Sudoeste 0.2 893.4 -- 83
2021-02-03 00:00:00 7.5 18 Sudoeste 36 Sudoeste 0 893.3 -- 84
2021-02-02 23:00:00 7.4 13 Sudoeste 31 Sudoeste 0.1 893.9 -- 90
2021-02-02 22:00:00 6.7 12 Sudeste 24 Sudeste 0.1 894.6 -- 96
2021-02-02 21:00:00 6.7 18 Sudeste 28 Sudeste 0 895.2 -- 96
2021-02-02 20:00:00 6.5 14 Sudeste 28 Sudeste 0 896.1 -- 96
2021-02-02 19:00:00 6.8 14 Sudeste 20 Este 0.2 896.6 -- 91
2021-02-02 18:00:00 7.3 15 Sudoeste 34 Sudoeste 0.2 897.2 -- 88
2021-02-02 17:00:00 7.4 12 Sudeste 23 Sudeste 0.2 896.2 -- 90
2021-02-02 16:00:00 8.4 12 Sur 35 Sur 0.1 896.9 -- 84
2021-02-02 15:00:00 8.9 18 Sur 34 Sur 0.1 897 -- 79
2021-02-02 14:00:00 9.4 4 Sudeste 13 Nordeste 1 898.5 -- 86
2021-02-02 13:00:00 7.5 8 Nordeste 21 Oeste 1 900 -- 87
2021-02-02 12:00:00 9.6 8 Sudoeste 23 Sudoeste 0 899.7 -- 65
2021-02-02 11:00:00 9.1 6 Este 13 Sudeste 0 899.2 -- 77
2021-02-02 10:00:00 7.7 3 Sudeste 5 Sudeste 0 899.5 -- 86
2021-02-02 09:00:00 2.5 0 Calma 9 Nordeste 0 899.6 -- 95
2021-02-02 08:00:00 2.7 2 Norte 8 Nordeste 0 899.5 -- 95
2021-02-02 07:00:00 3.8 2 Nordeste 9 Noroeste 0 899.2 -- 92
2021-02-02 06:00:00 4.4 0 Calma 12 Este 0 899.8 -- 92
2021-02-02 05:00:00 4.8 3 Noroeste 9 Nordeste 0 900.1 -- 92
2021-02-02 04:00:00 5 0 Calma 13 Nordeste 0 900.1 -- 92
2021-02-02 03:00:00 5 0 Calma 12 Norte 0 900.4 -- 92
2021-02-02 02:00:00 5 3 Norte 9 Nordeste 0 900.4 -- 92
2021-02-02 01:00:00 5.3 3 Nordeste 10 Noroeste 0 900.7 -- 92
2021-02-02 00:00:00 5.2 0 Calma 9 Nordeste 0 900.2 -- 90
2021-02-01 23:00:00 5.5 2 Nordeste 10 Sudeste 0 900.6 -- 90
2021-02-01 22:00:00 7 0 Calma 8 Sur 0 900.3 -- 83
2021-02-01 21:00:00 7.8 3 Sudeste 11 Este 0 900.6 -- 78
2021-02-01 20:00:00 8.3 5 Nordeste 12 Este 0 900.8 -- 73
2021-02-01 19:00:00 9.3 7 Este 29 Noroeste 0 900.5 -- 66
2021-02-01 18:00:00 11.2 20 Noroeste 36 Noroeste 0 899.7 -- 60
2021-02-01 17:00:00 10.9 28 Noroeste 48 Noroeste 0 899.8 -- 53
2021-02-01 16:00:00 12.1 22 Noroeste 44 Noroeste 0 899.6 -- 52
2021-02-01 15:00:00 11.6 26 Oeste 43 Noroeste 0 899.7 -- 53
2021-02-01 14:00:00 10.9 23 Noroeste 44 Noroeste 0 900 -- 50
2021-02-01 13:00:00 11.1 29 Noroeste 46 Oeste 0 899.5 -- 52
2021-02-01 12:00:00 10.5 27 Noroeste 49 Noroeste 0 899.5 -- 60
2021-02-01 11:00:00 9.5 28 Oeste 49 Noroeste 0 899.2 -- 63
2021-02-01 10:00:00 9.5 24 Noroeste 41 Noroeste 0 898.5 -- 65
2021-02-01 09:00:00 7.5 15 Noroeste 59 Noroeste 0 897.6 -- 69
2021-02-01 08:00:00 7.4 40 Noroeste 71 Noroeste 0 895.7 -- 68
2021-02-01 07:00:00 7.2 50 Noroeste 76 Noroeste 0 895.2 -- 68
2021-02-01 06:00:00 7.1 49 Noroeste 72 Noroeste 0 895.6 -- 65
2021-02-01 05:00:00 7 48 Noroeste 73 Noroeste 0 895.5 -- 63
2021-02-01 04:00:00 6.9 49 Noroeste 73 Noroeste 0 895.8 -- 64
2021-02-01 03:00:00 6.8 45 Noroeste 68 Noroeste 0 896.3 -- 65
2021-02-01 02:00:00 6.7 44 Noroeste 68 Noroeste 0 896.5 -- 63
2021-02-01 01:00:00 7 37 Noroeste 56 Oeste 0 896.6 -- 62
2021-02-01 00:00:00 7 28 Oeste 54 Oeste 0 896.7 -- 61
2021-01-31 23:00:00 7.4 24 Oeste 60 Noroeste 0 896.9 -- 61
2021-01-31 22:00:00 8.2 23 Oeste 56 Oeste 0 896.3 -- 59
2021-01-31 21:00:00 8.8 32 Oeste 55 Oeste 0 895.5 -- 56
2021-01-31 20:00:00 9.4 32 Oeste 53 Oeste 0 895.9 -- 57
2021-01-31 19:00:00 9.4 22 Oeste 60 Oeste 0 895.7 -- 57
2021-01-31 18:00:00 9.9 39 Oeste 66 Noroeste 0 895.5 -- 53
2021-01-31 17:00:00 11.6 44 Oeste 69 Noroeste 0 895 -- 49
2021-01-31 16:00:00 12.6 51 Oeste 75 Oeste 0 894.2 -- 48
2021-01-31 15:00:00 12.1 57 Noroeste 75 Noroeste 0 894.8 -- 52
2021-01-31 14:00:00 11.5 52 Oeste 82 Noroeste 0 894.8 -- 55
2021-01-31 13:00:00 11.9 54 Noroeste 73 Noroeste 0 894.9 -- 58
2021-01-31 12:00:00 11.6 56 Noroeste 73 Noroeste 0 894.8 -- 64
2021-01-31 11:00:00 11 43 Noroeste 62 Oeste 0.1 894.8 -- 69
2021-01-31 10:00:00 9.2 36 Noroeste 54 Noroeste 0 895.3 -- 78
2021-01-31 09:00:00 8.5 34 Noroeste 58 Oeste 0 895.1 -- 78
2021-01-31 08:00:00 7.7 32 Noroeste 52 Noroeste 0 895 -- 75
2021-01-31 07:00:00 7.2 33 Noroeste 61 Noroeste 0 895.2 -- 74
2021-01-31 06:00:00 5.9 41 Noroeste 61 Noroeste 0 894.8 -- 74
2021-01-31 05:00:00 4.7 40 Noroeste 75 Noroeste 0 894.5 -- 78
2021-01-31 04:00:00 3.9 48 Noroeste 74 Noroeste 0 894.4 -- 71
2021-01-31 03:00:00 4.4 54 Noroeste 84 Noroeste 0 893.9 -- 66
2021-01-31 02:00:00 4.2 57 Noroeste 85 Noroeste 0 893.7 -- 68
2021-01-31 01:00:00 3.6 50 Noroeste 90 Noroeste 0 894.3 -- 69
2021-01-31 00:00:00 3.7 54 Noroeste 80 Noroeste 0 893.8 -- 74
2021-01-30 23:00:00 3.7 56 Noroeste 84 Noroeste 0 893.4 -- 72
2021-01-30 22:00:00 3.1 40 Noroeste 67 Noroeste 0 893.9 -- 73
2021-01-30 21:00:00 3.3 44 Noroeste 64 Noroeste 0 893.9 -- 74
2021-01-30 20:00:00 3.4 48 Noroeste 69 Noroeste 0 893.8 -- 70
2021-01-30 19:00:00 3 50 Noroeste 71 Noroeste 0 893.8 -- 71
2021-01-30 18:00:00 2.1 38 Noroeste 58 Noroeste 0.9 893.7 -- 84
2021-01-30 17:00:00 2.7 35 Noroeste 58 Noroeste 0.2 894.3 -- 84
2021-01-30 16:00:00 2.7 26 Noroeste 66 Noroeste 0.1 894.2 -- 79
2021-01-30 15:00:00 5 27 Oeste 50 Noroeste 0.1 894.2 -- 74
2021-01-30 14:00:00 4.7 16 Oeste 31 Oeste 0.1 894.6 -- 75
2021-01-30 13:00:00 4 17 Oeste 30 Oeste 0.4 895.3 -- 77
2021-01-30 12:00:00 4.2 15 Oeste 50 Noroeste 0.2 895.2 -- 77
2021-01-30 11:00:00 6 28 Oeste 57 Noroeste 0 895.1 -- 58
2021-01-30 10:00:00 4.3 38 Noroeste 55 Noroeste 0 894.3 -- 67
2021-01-30 09:00:00 3.6 18 Oeste 32 Oeste 0 894.2 -- 68
2021-01-30 08:00:00 3.7 6 Sudeste 35 Oeste 0 894.3 -- 75
2021-01-30 07:00:00 4 8 Noroeste 28 Noroeste 0 894.7 -- 73
2021-01-30 06:00:00 3.7 18 Oeste 42 Noroeste 0 895.1 -- 75
2021-01-30 05:00:00 5 15 Oeste 37 Noroeste 0.1 895.5 -- 69
2021-01-30 04:00:00 5.2 3 Noroeste 15 Noroeste 0 896.1 -- 78
2021-01-30 03:00:00 6.2 10 Noroeste 35 Oeste 0 895.9 -- 73
2021-01-30 02:00:00 5.5 24 Noroeste 48 Noroeste 0.7 897.8 -- 78
2021-01-30 01:00:00 7.7 0 Calma 25 Sudoeste 0.2 897.6 -- 80
2021-01-30 00:00:00 7 8 Sudeste 19 Sudeste 0 897.3 -- 76
2021-01-29 23:00:00 8.7 11 Sudeste 22 Noroeste 0 898.6 -- 61
2021-01-29 22:00:00 8.3 11 Oeste 28 Sudoeste 0 899.7 -- 62
2021-01-29 21:00:00 9.7 20 Sudoeste 35 Sudoeste 0 900.2 -- 61
2021-01-29 20:00:00 10 12 Sudoeste 27 Sudoeste 0 900.8 -- 64
2021-01-29 19:00:00 8.6 7 Este 20 Sudeste 0 901.5 -- 75
2021-01-29 18:00:00 12.7 6 Sudeste 19 Sur 0 901.7 -- 59
2021-01-29 17:00:00 13 13 Sur 21 Sur 0 902.1 -- 58
2021-01-29 16:00:00 13.4 12 Sur 20 Sur 0 902.4 -- 58
2021-01-29 15:00:00 15.4 12 Sur 21 Sudeste 0 902.8 -- 55
2021-01-29 14:00:00 14 4 Sudeste 12 Sudeste 0 903.8 -- 56
2021-01-29 13:00:00 14.5 5 Este 13 Norte 0 904.5 -- 57
2021-01-29 12:00:00 12.9 8 Sudeste 14 Sudeste 0 904.8 -- 64
2021-01-29 11:00:00 11.2 6 Sudeste 10 Sudeste 0 905.1 -- 67
2021-01-29 10:00:00 8 0 Calma 6 Noroeste 0 905.1 -- 86
2021-01-29 09:00:00 4.2 0 Calma 9 Noroeste 0 904.9 -- 90
2021-01-29 08:00:00 5.8 2 Nordeste 8 Noroeste 0 904.7 -- 87
2021-01-29 07:00:00 7.2 0 Calma 9 Sur 0 904.9 -- 80
2021-01-29 06:00:00 8 4 Este 11 Nordeste 0 904.7 -- 81
2021-01-29 05:00:00 6.8 2 Oeste 8 Oeste 0 904.7 -- 85
2021-01-29 04:00:00 7.7 3 Sur 13 Nordeste 0 904.9 -- 80
2021-01-29 03:00:00 8.7 0 Calma 17 Sudeste 0 904.8 -- 78
2021-01-29 02:00:00 8.4 9 Nordeste 13 Nordeste 0 905.5 -- 79
2021-01-29 01:00:00 6.7 4 Nordeste 17 Oeste 0 905.4 -- 72
2021-01-29 00:00:00 9.6 9 Oeste 28 Sudoeste 0 905.5 -- 62
2021-01-28 23:00:00 10.4 13 Sudoeste 23 Oeste 0 905.3 -- 60
2021-01-28 22:00:00 10.4 12 Noroeste 17 Noroeste 0 906 -- 63
2021-01-28 21:00:00 10.2 0 Calma 10 Noroeste 0 905.4 -- 73
2021-01-28 20:00:00 10.3 4 Sur 19 Sur 0 905.5 -- 74
2021-01-28 19:00:00 12.1 2 Oeste 21 Oeste 0 905.5 -- 58
2021-01-28 18:00:00 13.7 10 Sudoeste 29 Sudoeste 0 905.5 -- 54
2021-01-28 17:00:00 12.1 2 Sudeste 8 Nordeste 0 905.5 -- 69
2021-01-28 16:00:00 12.4 2 Este 10 Nordeste 0 905.8 -- 63
2021-01-28 15:00:00 12.7 5 Nordeste 14 Nordeste 0 906.1 -- 61
2021-01-28 14:00:00 12.2 9 Nordeste 14 Nordeste 0 906.8 -- 65
2021-01-28 13:00:00 8.8 7 Nordeste 15 Este 0 907.5 -- 86
2021-01-28 12:00:00 10.6 2 Sudeste 8 Sudoeste 0 908 -- 83
2021-01-28 11:00:00 7.8 0 Calma 11 Este 0 907.9 -- 95
2021-01-28 10:00:00 5.7 5 Nordeste 12 Nordeste 0 907.7 -- 95
2021-01-28 09:00:00 2.3 2 Noroeste 7 Oeste 0.1 907.4 -- 95
2021-01-28 08:00:00 3 0 Calma 21 Este 0 907.2 -- 95
2021-01-28 07:00:00 3.2 4 Nordeste 8 Nordeste 0 907.1 -- 95
2021-01-28 06:00:00 4.2 3 Nordeste 12 Nordeste 0 907.3 -- 95
2021-01-28 05:00:00 3.8 4 Norte 9 Oeste 0 907.4 -- 95
2021-01-28 04:00:00 3.7 3 Noroeste 8 Noroeste 0 907.9 -- 95
2021-01-28 03:00:00 5.3 2 Norte 13 Este 0 908.3 -- 95
2021-01-28 02:00:00 5.7 3 Nordeste 10 Norte 0 908.6 -- 95
2021-01-28 01:00:00 6.3 2 Noroeste 17 Sudeste 0 909 -- 95
2021-01-28 00:00:00 5.7 3 Sudeste 12 Noroeste 0 909.5 -- 95
2021-01-27 23:00:00 5 3 Noroeste 9 Noroeste 0 909.3 -- 93
2021-01-27 22:00:00 6.4 2 Oeste 12 Noroeste 0 909.3 -- 92
2021-01-27 21:00:00 6.5 4 Noroeste 10 Oeste 0 909.6 -- 91
2021-01-27 20:00:00 7.6 3 Oeste 12 Sudeste 0 909.5 -- 84
2021-01-27 19:00:00 10.9 11 Sudeste 16 Sudeste 0 909.4 -- 76
2021-01-27 18:00:00 14 5 Sudeste 17 Oeste 0 909.5 -- 58
2021-01-27 17:00:00 15.3 13 Noroeste 28 Noroeste 0 909.7 -- 53
2021-01-27 16:00:00 16.5 9 Sudeste 14 Sur 0 909.8 -- 51
2021-01-27 15:00:00 17.5 8 Sudeste 17 Sudeste 0 909.7 -- 52
2021-01-27 14:00:00 17.3 8 Sudeste 15 Sudeste 0 910 -- 51
2021-01-27 13:00:00 15.8 10 Sudeste 15 Sudeste 0 910.5 -- 56
2021-01-27 12:00:00 13.2 8 Sudeste 17 Oeste 0 911 -- 64
2021-01-27 11:00:00 11.7 0 Calma 12 Noroeste 0 910.6 -- 71
2021-01-27 10:00:00 10.8 0 Calma 13 Sur 0 910.3 -- 78
2021-01-27 09:00:00 6.9 3 Sur 16 Noroeste 0 909.9 -- 84
2021-01-27 08:00:00 9.3 13 Noroeste 24 Noroeste 0 909.3 -- 81
2021-01-27 07:00:00 9.6 13 Noroeste 27 Noroeste 0 909.2 -- 80
2021-01-27 06:00:00 10.2 18 Noroeste 32 Noroeste 0 909.1 -- 78
2021-01-27 05:00:00 10.1 22 Noroeste 38 Noroeste 0 908.7 -- 78
2021-01-27 04:00:00 10.2 21 Noroeste 39 Noroeste 0 908.7 -- 80
2021-01-27 03:00:00 9.4 13 Noroeste 23 Oeste 0 908.6 -- 83
2021-01-27 02:00:00 9 8 Oeste 23 Noroeste 0 909 -- 84
2021-01-27 01:00:00 9.7 13 Noroeste 28 Noroeste 0 909.2 -- 84
2021-01-27 00:00:00 9.8 11 Noroeste 19 Noroeste 0 909.1 -- 87
2021-01-26 23:00:00 10.2 12 Oeste 17 Noroeste 0 909 -- 86
2021-01-26 22:00:00 10.3 0 Calma 16 Oeste 0 908.6 -- 86
2021-01-26 21:00:00 10.2 6 Oeste 13 Oeste 0 908.3 -- 87
2021-01-26 20:00:00 9.9 0 Calma 12 Noroeste 0 908.3 -- 85
2021-01-26 19:00:00 10.8 6 Noroeste 22 Noroeste 0 908 -- 81
2021-01-26 18:00:00 11.9 17 Noroeste 24 Noroeste 0 907.2 -- 75
2021-01-26 17:00:00 13 13 Noroeste 28 Noroeste 0 906.8 -- 71
2021-01-26 16:00:00 14.2 18 Noroeste 27 Noroeste 0 906.5 -- 63
2021-01-26 15:00:00 14.7 3 Sudeste 12 Sur 0 906.4 -- 66
2021-01-26 14:00:00 11.4 5 Sur 12 Sur 0 906.9 -- 77
2021-01-26 13:00:00 9 5 Este 10 Sudeste 0 906.3 -- 84
2021-01-26 12:00:00 7.4 2 Nordeste 6 Este 0 906.8 -- 96
2021-01-26 11:00:00 6.1 0 Calma 4 Nordeste 0 906.6 -- 96
2021-01-26 10:00:00 4.6 0 Calma 5 Sur 0.1 906.3 -- 96
2021-01-26 09:00:00 4.3 0 Calma 3 Sur 0.1 905.9 -- 96
2021-01-26 08:00:00 4.2 0 Calma 5 Sudeste 0.1 905.5 -- 96
2021-01-26 07:00:00 4.5 2 Este 5 Sudeste 0.1 905 -- 96
2021-01-26 06:00:00 4.5 0 Calma 4 Norte 0.1 904.7 -- 96
2021-01-26 05:00:00 5 0 Calma 5 Nordeste 0 904.5 -- 96
2021-01-26 04:00:00 5.3 0 Calma -- -- 0.1 904.7 -- 96
2021-01-26 03:00:00 5.2 0 Calma 6 Sur 0 904 -- 96
2021-01-26 02:00:00 5.6 4 Sudeste 9 Sudeste 0 903.7 -- 96
2021-01-26 01:00:00 4.8 0 Calma 4 Noroeste 0 903.4 -- 96
2021-01-26 00:00:00 4.4 4 Noroeste 5 Noroeste 0 903 -- 95
2021-01-25 23:00:00 3.8 0 Calma 6 Nordeste 0 902.5 -- 95
2021-01-25 22:00:00 5 3 Noroeste 5 Noroeste 0 902.2 -- 95
2021-01-25 21:00:00 7.2 3 Oeste 5 Nordeste 0 901.7 -- 92
2021-01-25 20:00:00 7.5 2 Este 7 Este 0.1 900.9 -- 92
2021-01-25 19:00:00 7.5 4 Sudeste 14 Noroeste 0 900 -- 90
2021-01-25 18:00:00 8.4 11 Noroeste 18 Noroeste 0 899 -- 87
2021-01-25 17:00:00 8.1 4 Sudeste 13 Nordeste 0.1 898.3 -- 89
2021-01-25 16:00:00 9.3 8 Nordeste 32 Noroeste 0.1 897.2 -- 86
2021-01-25 15:00:00 10.6 9 Norte 20 Noroeste 0 896.3 -- 73
2021-01-25 14:00:00 9.9 9 Noroeste 27 Noroeste 0 896.1 -- 80
2021-01-25 13:00:00 10.5 18 Noroeste 33 Oeste 0 895.4 -- 69
2021-01-25 12:00:00 10.6 16 Noroeste 33 Oeste 0 895 -- 70
2021-01-25 11:00:00 10.3 23 Noroeste 38 Noroeste 0 894 -- 71
2021-01-25 10:00:00 9.8 21 Noroeste 35 Noroeste 0 893.1 -- 69
2021-01-25 09:00:00 7.5 0 Calma 27 Noroeste 0 892.6 -- 81
2021-01-25 08:00:00 8.3 16 Noroeste 27 Noroeste 0 892.3 -- 86
2021-01-25 07:00:00 3.6 2 Noroeste 12 Nordeste 0 891.9 -- 96
2021-01-25 06:00:00 2.9 5 Nordeste 12 Nordeste 0.1 892.6 -- 96
2021-01-25 05:00:00 2.9 5 Nordeste 16 Nordeste 0 892.8 -- 96
2021-01-25 04:00:00 2.9 8 Nordeste 14 Norte 0.5 893.7 -- 95
2021-01-25 03:00:00 3 6 Nordeste 10 Nordeste 0.4 894.4 -- 95
2021-01-25 02:00:00 3.2 0 Calma 0 Calma 0.4 895.3 -- 93
2021-01-25 01:00:00 3.3 0 Calma 8 Sudeste 0.1 896.4 -- 90
2021-01-25 00:00:00 3.2 3 Sudeste 6 Sudeste 0 897 -- 83